createdAt,value
2022-09-02T00:01:29.719Z,1.70
2022-09-02T00:04:01.624Z,1.37
2022-09-02T00:06:31.334Z,1.30
2022-09-02T00:09:00.262Z,1.30
2022-09-02T00:11:30.880Z,1.30
2022-09-02T00:13:59.685Z,2.00
2022-09-02T00:16:27.657Z,1.20
2022-09-02T00:18:56.510Z,1.20
2022-09-02T00:21:26.942Z,1.20
2022-09-02T00:23:55.048Z,1.40
2022-09-02T00:26:23.344Z,1.50
2022-09-02T00:28:56.280Z,1.40
2022-09-02T00:31:25.676Z,1.20
2022-09-02T00:33:53.671Z,1.33
2022-09-02T00:36:22.275Z,1.10
2022-09-02T00:38:51.875Z,1.23
2022-09-02T00:41:24.207Z,1.30
2022-09-02T00:43:55.428Z,1.40
2022-09-02T00:46:25.618Z,1.30
2022-09-02T00:48:59.552Z,1.37
2022-09-02T00:51:30.274Z,1.10
2022-09-02T00:53:59.688Z,1.27
2022-09-02T00:56:30.565Z,1.20
2022-09-02T00:58:59.167Z,1.20
2022-09-02T01:01:28.139Z,2.00
2022-09-02T01:03:56.590Z,1.50
2022-09-02T01:06:28.670Z,1.33
2022-09-02T01:09:02.748Z,1.30
2022-09-02T01:11:39.029Z,1.27
2022-09-02T01:14:07.697Z,1.40
2022-09-02T01:16:42.269Z,1.37
2022-09-02T01:19:17.939Z,1.30
2022-09-02T01:21:49.134Z,1.40
2022-09-02T01:24:18.626Z,1.30
2022-09-02T01:26:46.531Z,1.30
2022-09-02T01:29:16.473Z,1.40
2022-09-02T01:31:44.685Z,1.43
2022-09-02T01:34:13.020Z,1.77
2022-09-02T01:36:42.526Z,1.43
2022-09-02T01:39:13.632Z,1.30
2022-09-02T01:41:42.078Z,2.00
2022-09-02T01:44:11.369Z,1.77
2022-09-02T01:46:39.649Z,1.50
2022-09-02T01:49:07.615Z,1.40
2022-09-02T01:51:35.881Z,1.20
2022-09-02T01:54:04.512Z,1.43
2022-09-02T01:56:33.829Z,1.50
2022-09-02T01:59:02.587Z,1.20
2022-09-02T02:01:30.690Z,1.30
2022-09-02T02:03:58.677Z,1.30
2022-09-02T02:06:26.573Z,1.30
2022-09-02T02:08:55.627Z,1.23
2022-09-02T02:11:25.779Z,1.43
2022-09-02T02:13:55.076Z,1.40
2022-09-02T02:16:23.015Z,1.20
2022-09-02T02:18:50.946Z,1.30
2022-09-02T02:21:18.879Z,1.20
2022-09-02T02:23:48.820Z,1.17
2022-09-02T02:26:16.807Z,1.57
2022-09-02T02:28:44.776Z,1.63
2022-09-02T02:31:14.285Z,1.40
2022-09-02T02:33:42.287Z,1.70
2022-09-02T02:36:10.792Z,1.50
2022-09-02T02:38:39.785Z,1.70
2022-09-02T02:41:07.913Z,1.40
2022-09-02T02:43:36.512Z,1.50
2022-09-02T02:46:05.353Z,1.40
2022-09-02T02:48:34.912Z,1.30
2022-09-02T02:51:03.968Z,1.30
2022-09-02T02:53:32.366Z,1.40
2022-09-02T02:56:00.655Z,1.70
2022-09-02T02:58:28.623Z,1.43
2022-09-02T03:00:57.107Z,1.60
2022-09-02T03:03:25.225Z,1.50
2022-09-02T03:05:55.901Z,1.30
2022-09-02T03:08:25.910Z,1.63
2022-09-02T03:10:56.469Z,1.40
2022-09-02T03:13:25.484Z,1.20
2022-09-02T03:15:54.901Z,1.40
2022-09-02T03:18:23.039Z,1.40
2022-09-02T03:20:51.251Z,1.47
2022-09-02T03:23:20.740Z,1.40
2022-09-02T03:25:48.791Z,1.30
2022-09-02T03:28:17.474Z,1.30
2022-09-02T03:30:47.312Z,1.40
2022-09-02T03:33:15.529Z,1.53
2022-09-02T03:35:46.003Z,1.40
2022-09-02T03:38:14.406Z,1.50
2022-09-02T03:40:44.311Z,1.37
2022-09-02T03:43:12.373Z,1.40
2022-09-02T03:45:41.760Z,1.60
2022-09-02T03:48:12.364Z,1.40
2022-09-02T03:50:42.621Z,1.30
2022-09-02T03:53:18.198Z,1.40
2022-09-02T03:55:52.778Z,1.40
2022-09-02T03:58:22.879Z,1.60
2022-09-02T04:00:52.806Z,1.50
2022-09-02T04:03:21.785Z,1.80
2022-09-02T04:05:50.770Z,1.33
2022-09-02T04:08:19.238Z,1.40
2022-09-02T04:10:47.244Z,1.60
2022-09-02T04:13:16.751Z,1.70
2022-09-02T04:15:48.393Z,1.60
2022-09-02T04:18:17.522Z,1.60
2022-09-02T04:20:45.833Z,1.50
2022-09-02T04:23:13.868Z,1.87
2022-09-02T04:25:42.957Z,1.70
2022-09-02T04:28:13.184Z,1.70
2022-09-02T04:30:43.694Z,1.57
2022-09-02T04:33:11.735Z,1.77
2022-09-02T04:35:41.465Z,1.90
2022-09-02T04:38:10.109Z,2.30
2022-09-02T04:40:41.835Z,3.43
2022-09-02T04:43:09.993Z,2.27
2022-09-02T04:45:42.512Z,2.10
2022-09-02T04:48:10.965Z,5.70
2022-09-02T04:50:41.097Z,2.47
2022-09-02T04:53:09.472Z,2.13
2022-09-02T04:55:40.844Z,2.27
2022-09-02T04:58:08.953Z,4.30
2022-09-02T05:00:39.169Z,2.47
2022-09-02T05:03:08.543Z,2.10
2022-09-02T05:05:39.198Z,2.10
2022-09-02T05:08:07.630Z,2.30
2022-09-02T05:10:35.604Z,1.80
2022-09-02T05:13:04.196Z,2.00
2022-09-02T05:15:32.355Z,3.27
2022-09-02T05:18:00.441Z,1.90
2022-09-02T05:20:29.700Z,2.90
2022-09-02T05:22:57.783Z,2.27
2022-09-02T05:25:25.754Z,2.33
2022-09-02T05:27:53.656Z,1.60
2022-09-02T05:30:21.588Z,2.10
2022-09-02T05:32:50.173Z,2.37
2022-09-02T05:35:19.031Z,1.83
2022-09-02T05:37:48.377Z,2.03
2022-09-02T05:40:16.346Z,3.03
2022-09-02T05:42:50.566Z,2.27
2022-09-02T05:45:19.411Z,2.10
2022-09-02T05:47:47.309Z,2.30
2022-09-02T05:50:16.551Z,4.47
2022-09-02T05:52:44.562Z,2.40
2022-09-02T05:55:13.973Z,4.80
2022-09-02T05:57:43.320Z,2.83
2022-09-02T06:00:18.114Z,2.07
2022-09-02T06:02:46.555Z,2.10
2022-09-02T06:05:14.618Z,2.20
2022-09-02T06:07:42.523Z,3.33
2022-09-02T06:10:10.424Z,2.43
2022-09-02T06:12:42.670Z,1.80
2022-09-02T06:15:12.452Z,1.90
2022-09-02T06:17:40.590Z,1.77
2022-09-02T06:20:10.017Z,2.40
2022-09-02T06:22:39.712Z,4.37
2022-09-02T06:25:08.277Z,2.00
2022-09-02T06:27:36.788Z,1.80
2022-09-02T06:30:07.126Z,2.03
2022-09-02T06:32:35.115Z,2.33
2022-09-02T06:35:03.001Z,2.00
2022-09-02T06:37:30.972Z,1.80
2022-09-02T06:39:58.919Z,2.03
2022-09-02T06:42:26.943Z,1.90
2022-09-02T06:44:54.805Z,1.87
2022-09-02T06:47:24.204Z,2.43
2022-09-02T06:49:52.074Z,1.73
2022-09-02T06:52:20.007Z,2.57
2022-09-02T06:54:49.208Z,1.90
2022-09-02T06:57:17.109Z,1.60
2022-09-02T06:59:45.078Z,3.73
2022-09-02T07:02:13.126Z,2.10
2022-09-02T07:05:00.417Z,3.30
2022-09-02T07:07:28.485Z,2.10
2022-09-02T07:09:56.696Z,2.00
2022-09-02T07:12:27.119Z,2.37
2022-09-02T07:14:55.973Z,3.20
2022-09-02T07:17:25.462Z,1.47
2022-09-02T07:19:57.701Z,1.67
2022-09-02T07:22:25.858Z,4.30
2022-09-02T07:24:53.796Z,2.15
2022-09-02T07:27:22.018Z,1.65
2022-09-02T07:29:50.480Z,2.05
2022-09-02T07:32:19.305Z,2.28
2022-09-02T07:34:47.455Z,1.80
2022-09-02T07:37:16.822Z,1.90
2022-09-02T07:39:45.324Z,1.90
2022-09-02T07:42:13.637Z,2.05
2022-09-02T07:44:41.542Z,2.10
2022-09-02T07:47:09.739Z,1.50
2022-09-02T07:52:29.509Z,1.70
2022-09-02T07:54:57.634Z,1.65
2022-09-02T07:57:25.720Z,1.98
2022-09-02T07:59:53.648Z,1.60
2022-09-02T08:02:21.766Z,1.80
2022-09-02T08:04:50.050Z,1.60
2022-09-02T08:07:24.226Z,1.58
2022-09-02T08:09:54.031Z,1.50
2022-09-02T08:12:22.645Z,1.70
2022-09-02T08:14:50.987Z,1.50
2022-09-02T08:17:19.131Z,1.60
2022-09-02T08:19:47.119Z,1.30
2022-09-02T08:22:15.502Z,1.67
2022-09-02T08:24:43.498Z,1.80
2022-09-02T08:27:12.915Z,1.60
2022-09-02T08:29:41.295Z,1.60
2022-09-02T08:32:09.540Z,1.55
2022-09-02T08:34:37.472Z,1.50
2022-09-02T08:37:06.554Z,1.50
2022-09-02T08:39:34.556Z,1.55
2022-09-02T08:42:09.212Z,2.70
2022-09-02T08:44:41.165Z,1.90
2022-09-02T08:47:14.474Z,3.50
2022-09-02T08:49:45.375Z,1.75
2022-09-02T08:52:22.519Z,1.70
2022-09-02T08:54:55.678Z,1.52
2022-09-02T08:57:26.823Z,1.50
2022-09-02T08:59:59.067Z,2.45
2022-09-02T09:02:36.901Z,2.25
2022-09-02T09:05:24.249Z,1.90
2022-09-02T09:08:08.473Z,2.10
2022-09-02T09:10:48.276Z,1.55
2022-09-02T09:13:31.439Z,1.70
2022-09-02T09:16:09.170Z,2.17
2022-09-02T09:18:40.595Z,1.70
2022-09-02T09:21:11.015Z,1.80
2022-09-02T09:23:41.222Z,1.48
2022-09-02T09:26:12.742Z,2.25
2022-09-02T09:28:47.182Z,1.70
2022-09-02T09:31:20.059Z,1.58
2022-09-02T09:34:01.138Z,2.08
2022-09-02T09:36:53.637Z,1.80
2022-09-02T09:39:27.737Z,2.17
2022-09-02T09:41:57.962Z,1.40
2022-09-02T09:44:44.760Z,1.52
2022-09-02T09:47:19.868Z,1.88
2022-09-02T09:49:50.089Z,1.50
2022-09-02T09:52:26.352Z,2.13
2022-09-02T09:55:13.882Z,1.67
2022-09-02T09:57:44.784Z,1.30
2022-09-02T10:00:32.215Z,1.33
2022-09-02T10:03:04.618Z,2.28
2022-09-02T10:05:35.892Z,2.42
2022-09-02T10:08:10.125Z,2.92
2022-09-02T10:10:57.602Z,2.00
2022-09-02T10:13:27.979Z,6.03
2022-09-02T10:16:11.529Z,2.38
2022-09-02T10:18:49.153Z,2.60
2022-09-02T10:21:29.513Z,4.03
2022-09-02T10:24:05.531Z,1.70
2022-09-02T10:26:39.405Z,1.38
2022-09-02T10:29:31.602Z,1.42
2022-09-02T10:32:24.359Z,1.30
2022-09-02T10:35:04.979Z,2.17
2022-09-02T10:37:41.557Z,2.00
2022-09-02T10:40:14.153Z,1.60
2022-09-02T10:42:54.267Z,1.88
2022-09-02T10:45:31.708Z,6.45
2022-09-02T10:48:13.975Z,9.13
2022-09-02T10:50:50.228Z,7.13
2022-09-02T10:53:32.898Z,5.68
2022-09-02T10:56:04.888Z,5.72
2022-09-02T10:58:45.360Z,4.70
2022-09-02T11:01:21.357Z,1.70
2022-09-02T11:04:05.028Z,3.00
2022-09-02T11:07:00.994Z,2.20
2022-09-02T11:09:34.712Z,2.25
2022-09-02T11:12:10.704Z,2.70
2022-09-02T11:14:49.566Z,5.20
2022-09-02T11:17:23.489Z,2.97
2022-09-02T11:19:56.991Z,2.10
2022-09-02T11:22:29.888Z,2.80
2022-09-02T11:25:04.657Z,3.13
2022-09-02T11:27:42.561Z,2.13
2022-09-02T11:30:14.976Z,1.70
2022-09-02T11:32:48.855Z,2.15
2022-09-02T11:35:21.847Z,3.08
2022-09-02T11:37:56.161Z,3.67
2022-09-02T11:40:36.727Z,2.70
2022-09-02T11:43:27.964Z,2.63
2022-09-02T11:46:21.032Z,3.63
2022-09-02T11:49:22.443Z,2.95
2022-09-02T11:52:04.635Z,3.80
2022-09-02T11:54:39.661Z,2.78
2022-09-02T11:57:11.988Z,2.00
2022-09-02T12:00:09.768Z,1.48
2022-09-02T12:02:43.975Z,1.52
2022-09-02T12:05:50.025Z,1.60
2022-09-02T12:09:01.042Z,1.45
2022-09-02T12:11:55.202Z,1.92
2022-09-02T12:15:08.925Z,1.40
2022-09-02T12:17:45.535Z,2.25
2022-09-02T12:20:52.273Z,1.90
2022-09-02T12:23:57.291Z,1.90
2022-09-02T12:26:27.260Z,1.67
2022-09-02T12:29:14.282Z,1.75
2022-09-02T12:31:44.217Z,2.10
2022-09-02T12:34:54.341Z,1.65
2022-09-02T12:37:53.777Z,2.83
2022-09-02T12:40:38.589Z,4.60
2022-09-02T12:43:21.143Z,2.17
2022-09-02T12:45:51.797Z,2.00
2022-09-02T12:48:37.898Z,1.55
2022-09-02T12:51:06.814Z,2.45
2022-09-02T12:53:38.494Z,3.17
2022-09-02T12:56:17.400Z,1.92
2022-09-02T12:58:48.833Z,1.77
2022-09-02T13:01:26.271Z,1.60
2022-09-02T13:04:16.787Z,2.10
2022-09-02T13:07:04.299Z,1.77
2022-09-02T13:10:02.627Z,2.33
2022-09-02T13:13:03.157Z,3.90
2022-09-02T13:15:58.045Z,4.05
2022-09-02T13:19:03.381Z,1.40
2022-09-02T13:21:51.335Z,4.47
2022-09-02T13:24:47.059Z,6.97
2022-09-02T13:27:50.178Z,1.85
2022-09-02T13:30:22.071Z,4.07
2022-09-02T13:32:58.540Z,3.83
2022-09-02T13:35:30.671Z,3.20
2022-09-02T13:38:01.812Z,1.65
2022-09-02T13:40:33.579Z,2.22
2022-09-02T13:43:03.504Z,2.03
2022-09-02T13:45:34.793Z,2.00
2022-09-02T13:48:08.388Z,1.90
2022-09-02T13:50:44.999Z,2.55
2022-09-02T13:56:14.849Z,1.63
2022-09-02T13:58:46.156Z,1.65
2022-09-02T14:01:28.258Z,2.10
2022-09-02T14:03:59.585Z,1.55
2022-09-02T14:06:33.255Z,3.25
2022-09-02T14:09:04.064Z,2.20
2022-09-02T14:11:39.279Z,2.70
2022-09-02T14:14:07.840Z,7.20
2022-09-02T14:16:37.374Z,8.07
2022-09-02T14:19:10.697Z,17.38
2022-09-02T14:21:47.274Z,15.98
2022-09-02T14:24:20.032Z,11.43
2022-09-02T14:26:49.141Z,2.63
2022-09-02T14:29:18.959Z,8.32
2022-09-02T14:31:48.021Z,2.38
2022-09-02T14:34:36.303Z,2.42
2022-09-02T14:37:20.077Z,4.82
2022-09-02T14:40:12.015Z,4.15
2022-09-02T14:42:55.068Z,1.90
2022-09-02T14:45:30.717Z,3.13
2022-09-02T14:48:02.995Z,1.85
2022-09-02T14:50:36.583Z,2.13
2022-09-02T14:53:09.216Z,1.80
2022-09-02T14:55:50.404Z,1.98
2022-09-02T14:58:18.835Z,2.05
2022-09-02T15:00:51.335Z,2.20
2022-09-02T15:03:20.202Z,3.83
2022-09-02T15:05:48.389Z,2.45
2022-09-02T15:08:18.327Z,3.25
2022-09-02T15:10:46.944Z,3.70
2022-09-02T15:13:19.789Z,2.78
2022-09-02T15:15:47.831Z,4.28
2022-09-02T15:18:15.728Z,4.65
2022-09-02T15:20:43.712Z,3.63
2022-09-02T15:23:12.061Z,2.00
2022-09-02T15:25:41.567Z,6.40
2022-09-02T15:28:09.427Z,2.50
2022-09-02T15:30:37.459Z,3.67
2022-09-02T15:33:06.078Z,2.60
2022-09-02T15:35:35.272Z,3.53
2022-09-02T15:38:04.282Z,2.13
2022-09-02T15:40:33.521Z,2.65
2022-09-02T15:43:02.752Z,2.53
2022-09-02T15:45:30.950Z,2.42
2022-09-02T15:47:59.722Z,2.85
2022-09-02T15:50:28.237Z,2.15
2022-09-02T15:52:57.100Z,2.80
2022-09-02T15:55:29.443Z,1.90
2022-09-02T15:57:57.629Z,1.80
2022-09-02T16:00:29.944Z,1.85
2022-09-02T16:03:01.468Z,2.10
2022-09-02T16:05:30.686Z,2.00
2022-09-02T16:07:58.786Z,2.20
2022-09-02T16:10:26.803Z,2.13
2022-09-02T16:12:54.627Z,2.60
2022-09-02T16:15:22.717Z,2.25
2022-09-02T16:17:52.742Z,2.08
2022-09-02T16:20:22.107Z,2.58
2022-09-02T16:22:49.987Z,1.75
2022-09-02T16:25:18.163Z,1.80
2022-09-02T16:27:55.854Z,1.77
2022-09-02T16:30:26.474Z,6.35
2022-09-02T16:32:55.740Z,2.50
2022-09-02T16:35:23.626Z,3.50
2022-09-02T16:37:51.582Z,2.33
2022-09-02T16:40:21.742Z,2.15
2022-09-02T16:42:49.851Z,2.67
2022-09-02T16:45:17.943Z,2.83
2022-09-02T16:47:45.816Z,2.28
2022-09-02T16:50:15.063Z,1.65
2022-09-02T16:52:43.659Z,5.40
2022-09-02T16:55:11.583Z,4.50
2022-09-02T16:57:39.435Z,2.80
2022-09-02T17:00:08.574Z,3.63
2022-09-02T17:02:36.566Z,3.42
2022-09-02T17:05:04.586Z,2.50
2022-09-02T17:07:33.981Z,2.72
2022-09-02T17:10:01.896Z,3.95
2022-09-02T17:12:29.847Z,2.60
2022-09-02T17:14:57.796Z,4.30
2022-09-02T17:17:25.723Z,2.90
2022-09-02T17:19:53.706Z,2.83
2022-09-02T17:22:21.705Z,4.38
2022-09-02T17:24:53.732Z,2.67
2022-09-02T17:27:22.045Z,2.55
2022-09-02T17:29:52.519Z,3.92
2022-09-02T17:32:21.262Z,2.60
2022-09-02T17:34:50.888Z,8.10
2022-09-02T17:37:18.824Z,3.60
2022-09-02T17:39:46.935Z,5.30
2022-09-02T17:42:15.764Z,4.28
2022-09-02T17:44:43.805Z,4.90
2022-09-02T17:47:14.232Z,6.75
2022-09-02T17:49:44.782Z,4.38
2022-09-02T17:52:14.672Z,4.07
2022-09-02T17:54:42.952Z,5.95
2022-09-02T17:57:29.435Z,4.45
2022-09-02T18:00:07.592Z,4.05
2022-09-02T18:03:13.577Z,3.05
2022-09-02T18:05:55.600Z,3.33
2022-09-02T18:08:33.804Z,4.22
2022-09-02T18:11:05.298Z,6.57
2022-09-02T18:13:45.091Z,2.95
2022-09-02T18:16:36.898Z,4.20
2022-09-02T18:19:31.077Z,3.00
2022-09-02T18:22:10.066Z,2.75
2022-09-02T18:24:57.679Z,2.30
2022-09-02T18:27:35.601Z,2.95
2022-09-02T18:30:08.622Z,3.40
2022-09-02T18:32:56.018Z,4.50
2022-09-02T18:35:33.458Z,4.15
2022-09-02T18:38:10.102Z,6.65
2022-09-02T18:40:49.028Z,3.33
2022-09-02T18:43:24.277Z,2.22
2022-09-02T18:45:58.779Z,2.33
2022-09-02T18:48:29.792Z,2.38
2022-09-02T18:50:59.835Z,5.40
2022-09-02T18:53:31.431Z,3.25
2022-09-02T18:56:06.075Z,6.22
2022-09-02T18:58:40.763Z,3.28
2022-09-02T19:01:16.028Z,2.70
2022-09-02T19:03:44.075Z,2.75
2022-09-02T19:06:18.588Z,2.83
2022-09-02T19:08:47.168Z,2.28
2022-09-02T19:11:17.959Z,2.58
2022-09-02T19:13:48.590Z,2.63
2022-09-02T19:16:19.957Z,6.10
2022-09-02T19:18:48.388Z,5.25
2022-09-02T19:21:20.362Z,4.55
2022-09-02T19:23:49.343Z,6.03
2022-09-02T19:26:18.344Z,3.13
2022-09-02T19:28:47.023Z,3.45
2022-09-02T19:31:21.965Z,2.45
2022-09-02T19:33:52.944Z,3.53
2022-09-02T19:36:22.468Z,2.43
2022-09-02T19:38:50.334Z,2.22
2022-09-02T19:41:18.256Z,2.85
2022-09-02T19:43:46.120Z,3.75
2022-09-02T19:46:33.100Z,2.10
2022-09-02T19:49:03.239Z,2.80
2022-09-02T19:51:31.098Z,2.20
2022-09-02T19:54:00.995Z,2.90
2022-09-02T19:56:29.090Z,2.63
2022-09-02T19:58:56.983Z,3.30
2022-09-02T20:01:24.879Z,5.27
2022-09-02T20:03:53.069Z,2.30
2022-09-02T20:06:22.289Z,2.43
2022-09-02T20:08:50.204Z,2.45
2022-09-02T20:11:18.332Z,2.70
2022-09-02T20:13:46.175Z,5.10
2022-09-02T20:16:17.767Z,2.90
2022-09-02T20:18:48.362Z,3.00
2022-09-02T20:21:20.673Z,3.42
2022-09-02T20:23:50.061Z,5.53
2022-09-02T20:26:34.406Z,6.22
2022-09-02T20:29:16.181Z,2.77
2022-09-02T20:31:57.485Z,2.73
2022-09-02T20:34:38.480Z,2.80
2022-09-02T20:37:16.400Z,2.00
2022-09-02T20:39:57.871Z,2.60
2022-09-02T20:42:58.973Z,1.83
2022-09-02T20:45:29.766Z,1.87
2022-09-02T20:48:10.515Z,2.00
2022-09-02T20:50:48.746Z,2.30
2022-09-02T20:53:38.821Z,1.70
2022-09-02T20:56:19.075Z,2.40
2022-09-02T20:58:54.198Z,2.60
2022-09-02T21:01:27.595Z,2.20
2022-09-02T21:04:02.844Z,2.80
2022-09-02T21:06:35.193Z,4.00
2022-09-02T21:09:11.280Z,4.33
2022-09-02T21:11:48.161Z,2.03
2022-09-02T21:14:21.244Z,2.63
2022-09-02T21:16:55.288Z,3.37
2022-09-02T21:19:30.499Z,3.17
2022-09-02T21:22:06.637Z,2.67
2022-09-02T21:24:39.337Z,2.57
2022-09-02T21:27:14.175Z,3.13
2022-09-02T21:29:49.918Z,3.60
2022-09-02T21:32:25.278Z,2.20
2022-09-02T21:34:58.452Z,2.80
2022-09-02T21:37:29.535Z,2.00
2022-09-02T21:40:02.420Z,2.00
2022-09-02T21:42:43.919Z,3.63
2022-09-02T21:45:21.435Z,2.57
2022-09-02T21:47:57.907Z,2.20
2022-09-02T21:50:35.839Z,1.87
2022-09-02T21:53:12.628Z,2.17
2022-09-02T21:55:57.580Z,1.57
2022-09-02T21:58:54.559Z,1.80
2022-09-02T22:01:44.452Z,2.07
2022-09-02T22:04:26.289Z,2.33
2022-09-02T22:07:00.414Z,2.23
2022-09-02T22:09:31.341Z,2.00
2022-09-02T22:12:05.536Z,2.30
2022-09-02T22:14:48.152Z,2.80
2022-09-02T22:17:27.199Z,2.20
2022-09-02T22:19:59.286Z,2.17
2022-09-02T22:22:30.349Z,4.20
2022-09-02T22:24:58.618Z,2.93
2022-09-02T22:27:34.381Z,2.57
2022-09-02T22:30:08.783Z,2.17
2022-09-02T22:32:41.280Z,3.17
2022-09-02T22:35:18.577Z,2.70
2022-09-02T22:37:53.420Z,2.40
2022-09-02T22:40:25.649Z,1.83
2022-09-02T22:42:59.004Z,1.90
2022-09-02T22:45:52.480Z,1.63
2022-09-02T22:48:44.730Z,1.50
2022-09-02T22:51:35.249Z,1.90
2022-09-02T22:54:03.314Z,3.27
2022-09-02T22:56:42.243Z,2.37
2022-09-02T22:59:25.189Z,1.73
2022-09-02T23:02:08.181Z,1.50
2022-09-02T23:04:52.473Z,1.50
2022-09-02T23:07:20.335Z,1.90
2022-09-02T23:09:53.009Z,1.40
2022-09-02T23:12:30.182Z,1.40
2022-09-02T23:15:13.321Z,1.40
2022-09-02T23:17:57.879Z,1.60
2022-09-02T23:20:32.823Z,1.90
2022-09-02T23:23:15.233Z,1.50
2022-09-02T23:25:53.932Z,1.30
2022-09-02T23:28:35.367Z,1.30
2022-09-02T23:31:13.169Z,1.77
2022-09-02T23:33:51.063Z,1.27
2022-09-02T23:36:35.072Z,1.40
2022-09-02T23:39:24.193Z,1.40
2022-09-02T23:41:53.419Z,1.30
2022-09-02T23:44:23.001Z,1.37
2022-09-02T23:47:06.347Z,1.30
2022-09-02T23:49:42.007Z,1.30
2022-09-02T23:52:24.643Z,1.10
2022-09-02T23:55:05.458Z,1.40
2022-09-02T23:57:56.700Z,1.30
